sensor_id;sensor_type;location;lat;lon;timestamp;P1;durP1;ratioP1;P2;durP2;ratioP2
9675;SDS011;4876;42.656;23.292;2023-02-14T00:02:02;22.43;;;15.47;;
9675;SDS011;4876;42.656;23.292;2023-02-14T00:04:29;23.27;;;15.60;;
9675;SDS011;4876;42.656;23.292;2023-02-14T00:06:58;23.43;;;15.83;;
9675;SDS011;4876;42.656;23.292;2023-02-14T00:09:25;22.57;;;15.40;;
9675;SDS011;4876;42.656;23.292;2023-02-14T00:11:52;24.10;;;16.03;;
9675;SDS011;4876;42.656;23.292;2023-02-14T00:14:19;22.93;;;15.97;;
9675;SDS011;4876;42.656;23.292;2023-02-14T00:17:03;23.20;;;14.73;;
9675;SDS011;4876;42.656;23.292;2023-02-14T00:19:30;19.30;;;14.80;;
9675;SDS011;4876;42.656;23.292;2023-02-14T00:22:00;20.57;;;13.97;;
9675;SDS011;4876;42.656;23.292;2023-02-14T00:24:27;23.80;;;14.73;;
9675;SDS011;4876;42.656;23.292;2023-02-14T00:26:54;27.93;;;16.20;;
9675;SDS011;4876;42.656;23.292;2023-02-14T00:29:21;27.03;;;15.60;;
9675;SDS011;4876;42.656;23.292;2023-02-14T00:31:49;22.20;;;16.33;;
9675;SDS011;4876;42.656;23.292;2023-02-14T00:34:17;23.70;;;16.37;;
9675;SDS011;4876;42.656;23.292;2023-02-14T00:36:44;20.47;;;14.80;;
9675;SDS011;4876;42.656;23.292;2023-02-14T00:39:13;22.30;;;15.67;;
9675;SDS011;4876;42.656;23.292;2023-02-14T00:41:41;24.00;;;15.33;;
9675;SDS011;4876;42.656;23.292;2023-02-14T00:44:08;26.63;;;16.00;;
9675;SDS011;4876;42.656;23.292;2023-02-14T00:46:36;23.27;;;16.17;;
9675;SDS011;4876;42.656;23.292;2023-02-14T00:49:03;21.53;;;14.97;;
9675;SDS011;4876;42.656;23.292;2023-02-14T00:51:30;20.13;;;13.90;;
9675;SDS011;4876;42.656;23.292;2023-02-14T00:53:57;24.50;;;14.40;;
9675;SDS011;4876;42.656;23.292;2023-02-14T00:56:25;22.57;;;15.63;;
9675;SDS011;4876;42.656;23.292;2023-02-14T00:58:51;23.37;;;15.70;;
9675;SDS011;4876;42.656;23.292;2023-02-14T01:01:18;25.10;;;16.53;;
9675;SDS011;4876;42.656;23.292;2023-02-14T01:03:45;22.23;;;16.33;;
9675;SDS011;4876;42.656;23.292;2023-02-14T01:06:12;21.87;;;14.60;;
9675;SDS011;4876;42.656;23.292;2023-02-14T01:08:40;26.10;;;16.33;;
9675;SDS011;4876;42.656;23.292;2023-02-14T01:11:08;22.83;;;15.43;;
9675;SDS011;4876;42.656;23.292;2023-02-14T01:13:37;23.73;;;17.00;;
9675;SDS011;4876;42.656;23.292;2023-02-14T01:16:05;23.63;;;16.00;;
9675;SDS011;4876;42.656;23.292;2023-02-14T01:18:33;22.23;;;16.40;;
9675;SDS011;4876;42.656;23.292;2023-02-14T01:21:14;25.33;;;18.27;;
9675;SDS011;4876;42.656;23.292;2023-02-14T01:23:42;22.77;;;14.87;;
9675;SDS011;4876;42.656;23.292;2023-02-14T01:26:10;26.23;;;17.10;;
9675;SDS011;4876;42.656;23.292;2023-02-14T01:28:39;23.33;;;16.37;;
9675;SDS011;4876;42.656;23.292;2023-02-14T01:31:07;25.37;;;16.73;;
9675;SDS011;4876;42.656;23.292;2023-02-14T01:33:35;23.23;;;17.00;;
9675;SDS011;4876;42.656;23.292;2023-02-14T01:36:02;23.77;;;18.43;;
9675;SDS011;4876;42.656;23.292;2023-02-14T01:38:30;25.83;;;17.47;;
9675;SDS011;4876;42.656;23.292;2023-02-14T01:40:56;24.20;;;16.50;;
9675;SDS011;4876;42.656;23.292;2023-02-14T01:43:24;22.47;;;17.23;;
9675;SDS011;4876;42.656;23.292;2023-02-14T01:45:52;28.03;;;18.30;;
9675;SDS011;4876;42.656;23.292;2023-02-14T01:48:19;24.67;;;17.70;;
9675;SDS011;4876;42.656;23.292;2023-02-14T01:50:48;25.77;;;17.07;;
9675;SDS011;4876;42.656;23.292;2023-02-14T01:53:18;28.50;;;18.50;;
9675;SDS011;4876;42.656;23.292;2023-02-14T01:55:50;21.87;;;15.40;;
9675;SDS011;4876;42.656;23.292;2023-02-14T01:58:24;24.50;;;17.07;;
9675;SDS011;4876;42.656;23.292;2023-02-14T02:00:54;25.23;;;17.13;;
9675;SDS011;4876;42.656;23.292;2023-02-14T02:03:25;27.27;;;17.77;;
9675;SDS011;4876;42.656;23.292;2023-02-14T02:05:57;27.77;;;20.10;;
9675;SDS011;4876;42.656;23.292;2023-02-14T02:08:28;24.13;;;17.83;;
9675;SDS011;4876;42.656;23.292;2023-02-14T02:10:55;26.87;;;18.03;;
9675;SDS011;4876;42.656;23.292;2023-02-14T02:13:22;25.63;;;16.97;;
9675;SDS011;4876;42.656;23.292;2023-02-14T02:15:54;27.87;;;17.73;;
9675;SDS011;4876;42.656;23.292;2023-02-14T02:18:34;30.53;;;18.77;;
9675;SDS011;4876;42.656;23.292;2023-02-14T02:24:27;30.83;;;18.60;;
9675;SDS011;4876;42.656;23.292;2023-02-14T02:27:23;30.40;;;19.30;;
9675;SDS011;4876;42.656;23.292;2023-02-14T02:33:21;26.73;;;18.87;;
9675;SDS011;4876;42.656;23.292;2023-02-14T02:39:09;30.93;;;17.97;;
9675;SDS011;4876;42.656;23.292;2023-02-14T02:41:47;22.30;;;16.00;;
9675;SDS011;4876;42.656;23.292;2023-02-14T02:44:28;22.80;;;16.17;;
9675;SDS011;4876;42.656;23.292;2023-02-14T02:47:08;22.97;;;15.60;;
9675;SDS011;4876;42.656;23.292;2023-02-14T02:49:43;26.20;;;16.50;;
9675;SDS011;4876;42.656;23.292;2023-02-14T02:52:38;29.63;;;17.23;;
9675;SDS011;4876;42.656;23.292;2023-02-14T02:55:26;26.90;;;16.00;;
9675;SDS011;4876;42.656;23.292;2023-02-14T02:58:19;20.93;;;14.37;;
9675;SDS011;4876;42.656;23.292;2023-02-14T03:00:47;22.63;;;14.10;;
9675;SDS011;4876;42.656;23.292;2023-02-14T03:03:18;22.17;;;15.60;;
9675;SDS011;4876;42.656;23.292;2023-02-14T03:06:06;24.27;;;15.17;;
9675;SDS011;4876;42.656;23.292;2023-02-14T03:08:34;23.50;;;16.80;;
9675;SDS011;4876;42.656;23.292;2023-02-14T03:11:01;22.63;;;15.30;;
9675;SDS011;4876;42.656;23.292;2023-02-14T03:13:35;24.57;;;15.43;;
9675;SDS011;4876;42.656;23.292;2023-02-14T03:16:23;20.37;;;11.27;;
9675;SDS011;4876;42.656;23.292;2023-02-14T03:19:14;24.20;;;14.37;;
9675;SDS011;4876;42.656;23.292;2023-02-14T03:22:16;21.10;;;13.37;;
9675;SDS011;4876;42.656;23.292;2023-02-14T03:24:54;21.23;;;14.53;;
9675;SDS011;4876;42.656;23.292;2023-02-14T03:27:24;20.93;;;14.50;;
9675;SDS011;4876;42.656;23.292;2023-02-14T03:29:56;23.27;;;14.53;;
9675;SDS011;4876;42.656;23.292;2023-02-14T03:32:30;22.80;;;14.83;;
9675;SDS011;4876;42.656;23.292;2023-02-14T03:35:06;22.47;;;13.63;;
9675;SDS011;4876;42.656;23.292;2023-02-14T03:37:38;24.20;;;15.53;;
9675;SDS011;4876;42.656;23.292;2023-02-14T03:40:13;21.80;;;14.17;;
9675;SDS011;4876;42.656;23.292;2023-02-14T03:42:42;23.33;;;15.00;;
9675;SDS011;4876;42.656;23.292;2023-02-14T03:45:15;22.10;;;15.23;;
9675;SDS011;4876;42.656;23.292;2023-02-14T03:47:45;21.43;;;14.67;;
9675;SDS011;4876;42.656;23.292;2023-02-14T03:50:16;22.40;;;14.80;;
9675;SDS011;4876;42.656;23.292;2023-02-14T03:52:44;21.23;;;13.97;;
9675;SDS011;4876;42.656;23.292;2023-02-14T03:55:16;23.40;;;14.57;;
9675;SDS011;4876;42.656;23.292;2023-02-14T03:57:48;20.60;;;14.53;;
9675;SDS011;4876;42.656;23.292;2023-02-14T04:00:20;21.80;;;14.50;;
9675;SDS011;4876;42.656;23.292;2023-02-14T04:02:48;21.30;;;14.73;;
9675;SDS011;4876;42.656;23.292;2023-02-14T04:05:21;21.70;;;13.20;;
9675;SDS011;4876;42.656;23.292;2023-02-14T04:07:50;22.77;;;13.37;;
9675;SDS011;4876;42.656;23.292;2023-02-14T04:10:20;24.63;;;14.90;;
9675;SDS011;4876;42.656;23.292;2023-02-14T04:12:48;21.77;;;14.60;;
9675;SDS011;4876;42.656;23.292;2023-02-14T04:15:14;19.60;;;13.47;;
9675;SDS011;4876;42.656;23.292;2023-02-14T04:17:42;19.73;;;13.70;;
9675;SDS011;4876;42.656;23.292;2023-02-14T04:20:26;23.47;;;14.37;;
9675;SDS011;4876;42.656;23.292;2023-02-14T04:22:53;18.97;;;14.90;;
9675;SDS011;4876;42.656;23.292;2023-02-14T04:25:21;23.13;;;14.03;;
9675;SDS011;4876;42.656;23.292;2023-02-14T04:27:48;21.30;;;13.77;;
9675;SDS011;4876;42.656;23.292;2023-02-14T04:30:16;21.20;;;14.80;;
9675;SDS011;4876;42.656;23.292;2023-02-14T04:32:44;19.83;;;12.60;;
9675;SDS011;4876;42.656;23.292;2023-02-14T04:35:11;20.67;;;14.53;;
9675;SDS011;4876;42.656;23.292;2023-02-14T04:37:38;19.53;;;13.57;;
9675;SDS011;4876;42.656;23.292;2023-02-14T04:40:06;19.43;;;13.43;;
9675;SDS011;4876;42.656;23.292;2023-02-14T04:42:35;18.83;;;12.07;;
9675;SDS011;4876;42.656;23.292;2023-02-14T04:45:01;22.17;;;12.97;;
9675;SDS011;4876;42.656;23.292;2023-02-14T04:47:28;23.23;;;13.47;;
9675;SDS011;4876;42.656;23.292;2023-02-14T04:49:55;23.77;;;13.97;;
9675;SDS011;4876;42.656;23.292;2023-02-14T04:52:22;23.10;;;14.00;;
9675;SDS011;4876;42.656;23.292;2023-02-14T04:54:49;19.77;;;13.10;;
9675;SDS011;4876;42.656;23.292;2023-02-14T04:57:16;17.57;;;12.00;;
9675;SDS011;4876;42.656;23.292;2023-02-14T04:59:44;19.13;;;12.53;;
9675;SDS011;4876;42.656;23.292;2023-02-14T05:02:10;23.33;;;12.83;;
9675;SDS011;4876;42.656;23.292;2023-02-14T05:04:37;17.93;;;12.53;;
9675;SDS011;4876;42.656;23.292;2023-02-14T05:07:04;20.85;;;15.77;;
9675;SDS011;4876;42.656;23.292;2023-02-14T05:09:32;19.17;;;12.77;;
9675;SDS011;4876;42.656;23.292;2023-02-14T05:11:59;19.03;;;12.37;;
9675;SDS011;4876;42.656;23.292;2023-02-14T05:14:25;22.08;;;15.02;;
9675;SDS011;4876;42.656;23.292;2023-02-14T05:16:54;20.07;;;13.63;;
9675;SDS011;4876;42.656;23.292;2023-02-14T05:19:21;21.40;;;14.10;;
9675;SDS011;4876;42.656;23.292;2023-02-14T05:21:48;19.70;;;13.90;;
9675;SDS011;4876;42.656;23.292;2023-02-14T05:24:15;19.17;;;11.17;;
9675;SDS011;4876;42.656;23.292;2023-02-14T05:26:42;20.90;;;13.80;;
9675;SDS011;4876;42.656;23.292;2023-02-14T05:29:09;20.97;;;12.77;;
9675;SDS011;4876;42.656;23.292;2023-02-14T05:31:36;15.03;;;11.90;;
9675;SDS011;4876;42.656;23.292;2023-02-14T05:34:04;16.73;;;12.13;;
9675;SDS011;4876;42.656;23.292;2023-02-14T05:36:31;20.17;;;11.53;;
9675;SDS011;4876;42.656;23.292;2023-02-14T05:38:57;18.43;;;13.33;;
9675;SDS011;4876;42.656;23.292;2023-02-14T05:41:24;16.40;;;12.70;;
9675;SDS011;4876;42.656;23.292;2023-02-14T05:43:51;18.50;;;12.80;;
9675;SDS011;4876;42.656;23.292;2023-02-14T05:46:18;21.30;;;13.60;;
9675;SDS011;4876;42.656;23.292;2023-02-14T05:48:47;20.27;;;12.43;;
9675;SDS011;4876;42.656;23.292;2023-02-14T05:51:16;20.33;;;13.27;;
9675;SDS011;4876;42.656;23.292;2023-02-14T05:53:42;18.43;;;12.50;;
9675;SDS011;4876;42.656;23.292;2023-02-14T05:56:09;26.33;;;15.37;;
9675;SDS011;4876;42.656;23.292;2023-02-14T05:58:36;27.00;;;13.73;;
9675;SDS011;4876;42.656;23.292;2023-02-14T06:01:03;22.77;;;14.57;;
9675;SDS011;4876;42.656;23.292;2023-02-14T06:03:30;21.67;;;13.13;;
9675;SDS011;4876;42.656;23.292;2023-02-14T06:05:56;22.17;;;12.63;;
9675;SDS011;4876;42.656;23.292;2023-02-14T06:08:24;21.90;;;14.90;;
9675;SDS011;4876;42.656;23.292;2023-02-14T06:10:51;21.07;;;14.17;;
9675;SDS011;4876;42.656;23.292;2023-02-14T06:13:18;20.97;;;11.50;;
9675;SDS011;4876;42.656;23.292;2023-02-14T06:15:45;18.57;;;12.53;;
9675;SDS011;4876;42.656;23.292;2023-02-14T06:18:12;22.00;;;13.47;;
9675;SDS011;4876;42.656;23.292;2023-02-14T06:20:38;14.93;;;11.53;;
9675;SDS011;4876;42.656;23.292;2023-02-14T06:23:05;21.07;;;14.60;;
9675;SDS011;4876;42.656;23.292;2023-02-14T06:25:34;19.20;;;14.23;;
9675;SDS011;4876;42.656;23.292;2023-02-14T06:28:00;19.20;;;14.57;;
9675;SDS011;4876;42.656;23.292;2023-02-14T06:30:27;24.20;;;15.37;;
9675;SDS011;4876;42.656;23.292;2023-02-14T06:32:54;24.60;;;15.10;;
9675;SDS011;4876;42.656;23.292;2023-02-14T06:35:21;26.23;;;15.30;;
9675;SDS011;4876;42.656;23.292;2023-02-14T06:37:48;23.87;;;15.17;;
9675;SDS011;4876;42.656;23.292;2023-02-14T06:40:14;22.57;;;16.60;;
9675;SDS011;4876;42.656;23.292;2023-02-14T06:42:45;27.17;;;13.83;;
9675;SDS011;4876;42.656;23.292;2023-02-14T06:45:11;20.43;;;14.57;;
9675;SDS011;4876;42.656;23.292;2023-02-14T06:47:38;25.50;;;15.53;;
9675;SDS011;4876;42.656;23.292;2023-02-14T06:50:06;24.60;;;15.03;;
9675;SDS011;4876;42.656;23.292;2023-02-14T06:52:35;21.70;;;15.53;;
9675;SDS011;4876;42.656;23.292;2023-02-14T06:55:02;20.17;;;13.20;;
9675;SDS011;4876;42.656;23.292;2023-02-14T06:57:29;19.50;;;12.37;;
9675;SDS011;4876;42.656;23.292;2023-02-14T06:59:58;17.90;;;11.73;;
9675;SDS011;4876;42.656;23.292;2023-02-14T07:02:24;18.53;;;13.00;;
9675;SDS011;4876;42.656;23.292;2023-02-14T07:04:51;14.90;;;10.50;;
9675;SDS011;4876;42.656;23.292;2023-02-14T07:07:18;23.40;;;13.00;;
9675;SDS011;4876;42.656;23.292;2023-02-14T07:09:45;18.63;;;13.47;;
9675;SDS011;4876;42.656;23.292;2023-02-14T07:12:11;21.27;;;12.07;;
9675;SDS011;4876;42.656;23.292;2023-02-14T07:14:38;17.90;;;12.97;;
9675;SDS011;4876;42.656;23.292;2023-02-14T07:17:06;22.07;;;13.53;;
9675;SDS011;4876;42.656;23.292;2023-02-14T07:19:33;20.93;;;14.40;;
9675;SDS011;4876;42.656;23.292;2023-02-14T07:22:00;22.03;;;14.87;;
9675;SDS011;4876;42.656;23.292;2023-02-14T07:24:27;15.17;;;10.77;;
9675;SDS011;4876;42.656;23.292;2023-02-14T07:26:54;18.27;;;12.20;;
9675;SDS011;4876;42.656;23.292;2023-02-14T07:29:21;21.03;;;13.70;;
9675;SDS011;4876;42.656;23.292;2023-02-14T07:31:48;24.10;;;13.53;;
9675;SDS011;4876;42.656;23.292;2023-02-14T07:34:16;21.00;;;13.03;;
9675;SDS011;4876;42.656;23.292;2023-02-14T07:36:42;27.13;;;15.83;;
9675;SDS011;4876;42.656;23.292;2023-02-14T07:39:09;22.03;;;13.40;;
9675;SDS011;4876;42.656;23.292;2023-02-14T07:41:36;18.47;;;11.57;;
9675;SDS011;4876;42.656;23.292;2023-02-14T07:44:03;20.70;;;14.93;;
9675;SDS011;4876;42.656;23.292;2023-02-14T07:46:30;22.57;;;14.67;;
9675;SDS011;4876;42.656;23.292;2023-02-14T07:48:57;25.30;;;15.07;;
9675;SDS011;4876;42.656;23.292;2023-02-14T07:51:25;24.93;;;14.97;;
9675;SDS011;4876;42.656;23.292;2023-02-14T07:53:52;22.73;;;14.23;;
9675;SDS011;4876;42.656;23.292;2023-02-14T07:56:19;25.13;;;14.63;;
9675;SDS011;4876;42.656;23.292;2023-02-14T07:58:46;20.20;;;14.77;;
9675;SDS011;4876;42.656;23.292;2023-02-14T08:01:16;16.87;;;13.17;;
9675;SDS011;4876;42.656;23.292;2023-02-14T08:03:43;17.47;;;10.50;;
9675;SDS011;4876;42.656;23.292;2023-02-14T08:06:13;18.73;;;12.63;;
9675;SDS011;4876;42.656;23.292;2023-02-14T08:08:42;28.47;;;16.13;;
9675;SDS011;4876;42.656;23.292;2023-02-14T08:11:08;23.23;;;15.97;;
9675;SDS011;4876;42.656;23.292;2023-02-14T08:13:35;22.57;;;14.43;;
9675;SDS011;4876;42.656;23.292;2023-02-14T08:16:01;20.23;;;12.80;;
9675;SDS011;4876;42.656;23.292;2023-02-14T08:18:32;24.53;;;15.73;;
9675;SDS011;4876;42.656;23.292;2023-02-14T08:21:01;22.63;;;15.27;;
9675;SDS011;4876;42.656;23.292;2023-02-14T08:23:28;21.30;;;13.87;;
9675;SDS011;4876;42.656;23.292;2023-02-14T08:25:57;26.33;;;15.67;;
9675;SDS011;4876;42.656;23.292;2023-02-14T08:28:24;19.93;;;14.63;;
9675;SDS011;4876;42.656;23.292;2023-02-14T08:30:52;24.37;;;16.10;;
9675;SDS011;4876;42.656;23.292;2023-02-14T08:33:19;20.33;;;13.53;;
9675;SDS011;4876;42.656;23.292;2023-02-14T08:35:46;19.80;;;13.87;;
9675;SDS011;4876;42.656;23.292;2023-02-14T08:38:13;21.33;;;15.30;;
9675;SDS011;4876;42.656;23.292;2023-02-14T08:40:40;21.50;;;13.57;;
9675;SDS011;4876;42.656;23.292;2023-02-14T08:43:09;22.00;;;14.73;;
9675;SDS011;4876;42.656;23.292;2023-02-14T08:45:36;17.73;;;11.50;;
9675;SDS011;4876;42.656;23.292;2023-02-14T08:48:04;21.63;;;14.60;;
9675;SDS011;4876;42.656;23.292;2023-02-14T08:50:32;19.70;;;12.27;;
9675;SDS011;4876;42.656;23.292;2023-02-14T08:52:59;26.63;;;15.53;;
9675;SDS011;4876;42.656;23.292;2023-02-14T08:55:26;22.90;;;15.33;;
9675;SDS011;4876;42.656;23.292;2023-02-14T08:57:53;21.57;;;10.97;;
9675;SDS011;4876;42.656;23.292;2023-02-14T09:00:23;22.20;;;14.07;;
9675;SDS011;4876;42.656;23.292;2023-02-14T09:02:49;21.90;;;15.53;;
9675;SDS011;4876;42.656;23.292;2023-02-14T09:05:17;27.50;;;14.63;;
9675;SDS011;4876;42.656;23.292;2023-02-14T09:07:44;22.50;;;12.00;;
9675;SDS011;4876;42.656;23.292;2023-02-14T09:10:11;27.37;;;15.47;;
9675;SDS011;4876;42.656;23.292;2023-02-14T09:12:38;23.77;;;14.47;;
9675;SDS011;4876;42.656;23.292;2023-02-14T09:15:06;24.93;;;15.23;;
9675;SDS011;4876;42.656;23.292;2023-02-14T09:17:34;18.17;;;12.37;;
9675;SDS011;4876;42.656;23.292;2023-02-14T09:20:02;14.53;;;10.27;;
9675;SDS011;4876;42.656;23.292;2023-02-14T09:22:30;24.10;;;14.97;;
9675;SDS011;4876;42.656;23.292;2023-02-14T09:24:58;24.80;;;15.07;;
9675;SDS011;4876;42.656;23.292;2023-02-14T09:27:24;24.60;;;16.50;;
9675;SDS011;4876;42.656;23.292;2023-02-14T09:29:52;22.73;;;15.00;;
9675;SDS011;4876;42.656;23.292;2023-02-14T09:32:19;22.73;;;13.27;;
9675;SDS011;4876;42.656;23.292;2023-02-14T09:34:47;20.30;;;14.73;;
9675;SDS011;4876;42.656;23.292;2023-02-14T09:37:14;19.17;;;13.07;;
9675;SDS011;4876;42.656;23.292;2023-02-14T09:39:40;15.80;;;11.13;;
9675;SDS011;4876;42.656;23.292;2023-02-14T09:45:08;18.90;;;11.83;;
9675;SDS011;4876;42.656;23.292;2023-02-14T09:47:39;28.93;;;16.20;;
9675;SDS011;4876;42.656;23.292;2023-02-14T09:50:14;21.63;;;13.33;;
9675;SDS011;4876;42.656;23.292;2023-02-14T09:52:45;21.30;;;15.47;;
9675;SDS011;4876;42.656;23.292;2023-02-14T09:55:16;28.93;;;15.80;;
9675;SDS011;4876;42.656;23.292;2023-02-14T09:57:45;20.70;;;13.23;;
9675;SDS011;4876;42.656;23.292;2023-02-14T10:00:28;22.03;;;14.70;;
9675;SDS011;4876;42.656;23.292;2023-02-14T10:03:04;27.37;;;14.80;;
9675;SDS011;4876;42.656;23.292;2023-02-14T10:05:46;30.00;;;17.90;;
9675;SDS011;4876;42.656;23.292;2023-02-14T10:08:22;15.43;;;10.37;;
9675;SDS011;4876;42.656;23.292;2023-02-14T10:11:02;18.77;;;11.13;;
9675;SDS011;4876;42.656;23.292;2023-02-14T10:13:33;21.67;;;14.47;;
9675;SDS011;4876;42.656;23.292;2023-02-14T10:16:07;21.23;;;13.30;;
9675;SDS011;4876;42.656;23.292;2023-02-14T10:18:49;17.67;;;9.37;;
9675;SDS011;4876;42.656;23.292;2023-02-14T10:21:23;21.67;;;12.73;;
9675;SDS011;4876;42.656;23.292;2023-02-14T10:23:56;18.03;;;12.53;;
9675;SDS011;4876;42.656;23.292;2023-02-14T10:26:27;12.03;;;9.40;;
9675;SDS011;4876;42.656;23.292;2023-02-14T10:28:58;18.77;;;11.50;;
9675;SDS011;4876;42.656;23.292;2023-02-14T10:31:25;24.77;;;13.17;;
9675;SDS011;4876;42.656;23.292;2023-02-14T10:33:58;17.50;;;11.33;;
9675;SDS011;4876;42.656;23.292;2023-02-14T10:39:39;15.90;;;10.40;;
9675;SDS011;4876;42.656;23.292;2023-02-14T10:42:18;13.13;;;8.47;;
9675;SDS011;4876;42.656;23.292;2023-02-14T10:44:57;16.23;;;10.50;;
9675;SDS011;4876;42.656;23.292;2023-02-14T10:47:37;15.40;;;10.40;;
9675;SDS011;4876;42.656;23.292;2023-02-14T10:50:14;14.03;;;8.47;;
9675;SDS011;4876;42.656;23.292;2023-02-14T10:52:47;16.20;;;11.80;;
9675;SDS011;4876;42.656;23.292;2023-02-14T10:55:25;14.10;;;7.57;;
9675;SDS011;4876;42.656;23.292;2023-02-14T10:58:05;16.77;;;10.23;;
9675;SDS011;4876;42.656;23.292;2023-02-14T11:00:36;14.63;;;9.60;;
9675;SDS011;4876;42.656;23.292;2023-02-14T11:03:06;12.63;;;9.87;;
9675;SDS011;4876;42.656;23.292;2023-02-14T11:05:35;18.03;;;10.97;;
9675;SDS011;4876;42.656;23.292;2023-02-14T11:10:54;23.53;;;9.10;;
9675;SDS011;4876;42.656;23.292;2023-02-14T11:13:29;14.60;;;10.17;;
9675;SDS011;4876;42.656;23.292;2023-02-14T11:15:58;20.80;;;11.13;;
9675;SDS011;4876;42.656;23.292;2023-02-14T11:18:27;12.73;;;8.30;;
9675;SDS011;4876;42.656;23.292;2023-02-14T11:21:00;12.80;;;9.10;;
9675;SDS011;4876;42.656;23.292;2023-02-14T11:23:32;14.87;;;9.00;;
9675;SDS011;4876;42.656;23.292;2023-02-14T11:26:00;14.43;;;10.13;;
9675;SDS011;4876;42.656;23.292;2023-02-14T11:28:28;19.70;;;11.00;;
9675;SDS011;4876;42.656;23.292;2023-02-14T11:30:56;16.97;;;11.43;;
9675;SDS011;4876;42.656;23.292;2023-02-14T11:33:28;15.90;;;11.67;;
9675;SDS011;4876;42.656;23.292;2023-02-14T11:35:59;15.47;;;11.03;;
9675;SDS011;4876;42.656;23.292;2023-02-14T11:38:29;15.00;;;11.03;;
9675;SDS011;4876;42.656;23.292;2023-02-14T11:41:01;14.33;;;10.70;;
9675;SDS011;4876;42.656;23.292;2023-02-14T11:43:30;13.57;;;9.87;;
9675;SDS011;4876;42.656;23.292;2023-02-14T11:46:14;14.07;;;8.23;;
9675;SDS011;4876;42.656;23.292;2023-02-14T11:48:53;12.70;;;8.80;;
9675;SDS011;4876;42.656;23.292;2023-02-14T11:51:29;12.83;;;9.37;;
9675;SDS011;4876;42.656;23.292;2023-02-14T11:54:01;16.17;;;7.33;;
9675;SDS011;4876;42.656;23.292;2023-02-14T11:56:46;15.17;;;9.60;;
9675;SDS011;4876;42.656;23.292;2023-02-14T11:59:23;10.60;;;6.97;;
9675;SDS011;4876;42.656;23.292;2023-02-14T12:01:53;9.87;;;7.87;;
9675;SDS011;4876;42.656;23.292;2023-02-14T12:04:23;19.17;;;8.90;;
9675;SDS011;4876;42.656;23.292;2023-02-14T12:07:10;12.07;;;7.50;;
9675;SDS011;4876;42.656;23.292;2023-02-14T12:09:48;10.47;;;6.37;;
9675;SDS011;4876;42.656;23.292;2023-02-14T12:12:47;13.47;;;7.70;;
9675;SDS011;4876;42.656;23.292;2023-02-14T12:15:26;11.00;;;8.20;;
9675;SDS011;4876;42.656;23.292;2023-02-14T12:20:55;11.60;;;8.03;;
9675;SDS011;4876;42.656;23.292;2023-02-14T12:23:29;9.37;;;7.30;;
9675;SDS011;4876;42.656;23.292;2023-02-14T12:26:10;9.63;;;5.93;;
9675;SDS011;4876;42.656;23.292;2023-02-14T12:28:44;13.07;;;6.93;;
9675;SDS011;4876;42.656;23.292;2023-02-14T12:31:16;10.67;;;8.03;;
9675;SDS011;4876;42.656;23.292;2023-02-14T12:33:44;17.50;;;9.47;;
9675;SDS011;4876;42.656;23.292;2023-02-14T12:36:14;13.10;;;8.70;;
9675;SDS011;4876;42.656;23.292;2023-02-14T12:38:53;12.33;;;6.67;;
9675;SDS011;4876;42.656;23.292;2023-02-14T12:41:33;9.93;;;7.27;;
9675;SDS011;4876;42.656;23.292;2023-02-14T12:44:13;8.93;;;7.30;;
9675;SDS011;4876;42.656;23.292;2023-02-14T12:47:00;10.67;;;7.83;;
9675;SDS011;4876;42.656;23.292;2023-02-14T12:49:41;9.87;;;7.00;;
9675;SDS011;4876;42.656;23.292;2023-02-14T12:52:30;12.93;;;8.13;;
9675;SDS011;4876;42.656;23.292;2023-02-14T12:55:17;12.20;;;8.53;;
9675;SDS011;4876;42.656;23.292;2023-02-14T12:57:57;11.77;;;8.53;;
9675;SDS011;4876;42.656;23.292;2023-02-14T13:00:32;12.10;;;8.27;;
9675;SDS011;4876;42.656;23.292;2023-02-14T13:03:16;10.20;;;7.33;;
9675;SDS011;4876;42.656;23.292;2023-02-14T13:06:03;12.30;;;7.50;;
9675;SDS011;4876;42.656;23.292;2023-02-14T13:08:41;12.10;;;7.93;;
9675;SDS011;4876;42.656;23.292;2023-02-14T13:11:19;12.03;;;9.23;;
9675;SDS011;4876;42.656;23.292;2023-02-14T13:14:01;13.40;;;9.90;;
9675;SDS011;4876;42.656;23.292;2023-02-14T13:16:40;11.33;;;7.47;;
9675;SDS011;4876;42.656;23.292;2023-02-14T13:19:13;11.57;;;6.70;;
9675;SDS011;4876;42.656;23.292;2023-02-14T13:21:50;12.53;;;8.40;;
9675;SDS011;4876;42.656;23.292;2023-02-14T13:24:18;11.40;;;8.70;;
9675;SDS011;4876;42.656;23.292;2023-02-14T13:26:48;11.47;;;7.87;;
9675;SDS011;4876;42.656;23.292;2023-02-14T13:29:21;13.70;;;9.30;;
9675;SDS011;4876;42.656;23.292;2023-02-14T13:31:50;12.97;;;8.33;;
9675;SDS011;4876;42.656;23.292;2023-02-14T13:34:24;13.30;;;9.53;;
9675;SDS011;4876;42.656;23.292;2023-02-14T13:36:55;12.60;;;9.03;;
9675;SDS011;4876;42.656;23.292;2023-02-14T13:39:24;14.53;;;9.53;;
9675;SDS011;4876;42.656;23.292;2023-02-14T13:41:55;12.40;;;8.53;;
9675;SDS011;4876;42.656;23.292;2023-02-14T13:44:41;13.03;;;8.90;;
9675;SDS011;4876;42.656;23.292;2023-02-14T13:47:15;15.93;;;9.40;;
9675;SDS011;4876;42.656;23.292;2023-02-14T13:49:46;12.97;;;8.13;;
9675;SDS011;4876;42.656;23.292;2023-02-14T13:55:05;13.90;;;9.83;;
9675;SDS011;4876;42.656;23.292;2023-02-14T13:57:34;13.50;;;9.23;;
9675;SDS011;4876;42.656;23.292;2023-02-14T14:00:27;15.90;;;11.23;;
9675;SDS011;4876;42.656;23.292;2023-02-14T14:03:03;16.13;;;10.33;;
9675;SDS011;4876;42.656;23.292;2023-02-14T14:05:44;12.57;;;8.93;;
9675;SDS011;4876;42.656;23.292;2023-02-14T14:08:16;16.70;;;10.20;;
9675;SDS011;4876;42.656;23.292;2023-02-14T14:10:59;15.47;;;10.43;;
9675;SDS011;4876;42.656;23.292;2023-02-14T14:16:26;12.77;;;9.83;;
9675;SDS011;4876;42.656;23.292;2023-02-14T14:18:55;14.53;;;10.13;;
9675;SDS011;4876;42.656;23.292;2023-02-14T14:21:23;13.37;;;10.23;;
9675;SDS011;4876;42.656;23.292;2023-02-14T14:24:02;14.57;;;10.07;;
9675;SDS011;4876;42.656;23.292;2023-02-14T14:26:38;15.20;;;9.60;;
9675;SDS011;4876;42.656;23.292;2023-02-14T14:29:12;13.60;;;10.03;;
9675;SDS011;4876;42.656;23.292;2023-02-14T14:31:45;15.90;;;9.20;;
9675;SDS011;4876;42.656;23.292;2023-02-14T14:34:19;13.07;;;9.57;;
9675;SDS011;4876;42.656;23.292;2023-02-14T14:36:48;14.83;;;10.30;;
9675;SDS011;4876;42.656;23.292;2023-02-14T14:39:24;16.27;;;10.57;;
9675;SDS011;4876;42.656;23.292;2023-02-14T14:41:53;14.90;;;9.40;;
9675;SDS011;4876;42.656;23.292;2023-02-14T14:44:20;18.53;;;10.63;;
9675;SDS011;4876;42.656;23.292;2023-02-14T14:46:48;16.43;;;10.97;;
9675;SDS011;4876;42.656;23.292;2023-02-14T14:49:16;14.97;;;9.67;;
9675;SDS011;4876;42.656;23.292;2023-02-14T14:51:45;14.50;;;10.50;;
9675;SDS011;4876;42.656;23.292;2023-02-14T14:54:14;17.53;;;9.67;;
9675;SDS011;4876;42.656;23.292;2023-02-14T14:56:45;15.03;;;9.67;;
9675;SDS011;4876;42.656;23.292;2023-02-14T14:59:16;13.50;;;8.80;;
9675;SDS011;4876;42.656;23.292;2023-02-14T15:01:45;14.27;;;10.53;;
9675;SDS011;4876;42.656;23.292;2023-02-14T15:04:15;14.73;;;10.73;;
9675;SDS011;4876;42.656;23.292;2023-02-14T15:06:44;14.07;;;9.37;;
9675;SDS011;4876;42.656;23.292;2023-02-14T15:09:12;15.10;;;10.17;;
9675;SDS011;4876;42.656;23.292;2023-02-14T15:11:40;16.53;;;10.77;;
9675;SDS011;4876;42.656;23.292;2023-02-14T15:14:27;14.53;;;10.97;;
9675;SDS011;4876;42.656;23.292;2023-02-14T15:16:56;13.43;;;10.67;;
9675;SDS011;4876;42.656;23.292;2023-02-14T15:19:27;16.73;;;10.10;;
9675;SDS011;4876;42.656;23.292;2023-02-14T15:21:59;15.53;;;10.90;;
9675;SDS011;4876;42.656;23.292;2023-02-14T15:24:27;11.63;;;8.70;;
9675;SDS011;4876;42.656;23.292;2023-02-14T15:26:55;14.13;;;10.70;;
9675;SDS011;4876;42.656;23.292;2023-02-14T15:29:23;17.93;;;11.47;;